Wetterdaten: Woche 03.06.19 - 09.06.19 (KW23)
Datum Zeit Temp. Aussen Temp. o. S. +5cm Feuchte Auss Luftdruck Regen Sonnenschein Regendauer Solar Windben Empfang
03.06.2019 00:00 23,5 C 20,7 C 19,4 C 62 % 1011,7 hPa 0,0 l/m 0,00 h 0,00 h 0 W/m 1,3 km/h (1 Bft) 97,29 %
03.06.2019 01:00 21,4 C 18,8 C 17,5 C 68 % 1011,7 hPa 0,0 l/m 0,00 h 0,00 h 0 W/m 1,1 km/h (0 Bft) 97,08 %
03.06.2019 02:00 19,8 C 17,4 C 16,8 C 72 % 1011,4 hPa 0,0 l/m 0,00 h 0,00 h 0 W/m 0,3 km/h (0 Bft) 98,29 %
03.06.2019 03:00 19,0 C 16,8 C 16,5 C 82 % 1012,0 hPa 9,6 l/m 0,00 h 0,47 h 0 W/m 6,1 km/h (2 Bft) 97,93 %
03.06.2019 04:00 17,8 C 15,7 C 15,7 C 92 % 1011,5 hPa 1,4 l/m 0,00 h 0,37 h 0 W/m 2,5 km/h (1 Bft) 97,13 %
03.06.2019 05:00 17,0 C 15,4 C 15,3 C 94 % 1010,8 hPa 3,2 l/m 0,00 h 0,38 h 4 W/m 10,0 km/h (2 Bft) 98,35 %
03.06.2019 06:00 16,9 C 15,6 C 15,5 C 96 % 1011,9 hPa 0,6 l/m 0,00 h 0,58 h 5 W/m 5,6 km/h (1 Bft) 99,56 %
03.06.2019 07:00 17,1 C 15,8 C 15,6 C 97 % 1011,9 hPa 0,6 l/m 0,00 h 0,70 h 24 W/m 2,8 km/h (1 Bft) 97,70 %
03.06.2019 08:00 17,6 C 17,9 C 17,2 C 98 % 1012,0 hPa 0,0 l/m 0,00 h 0,00 h 159 W/m 1,5 km/h (1 Bft) 96,15 %
03.06.2019 09:00 19,3 C 23,1 C 21,2 C 98 % 1012,3 hPa 0,0 l/m 0,70 h 0,00 h 437 W/m 6,6 km/h (2 Bft) 98,57 %
03.06.2019 10:00 22,2 C 27,4 C 26,4 C 86 % 1012,2 hPa 0,0 l/m 0,67 h 0,00 h 522 W/m 6,3 km/h (2 Bft) 98,87 %
03.06.2019 11:00 22,0 C 22,5 C 20,3 C 80 % 1012,9 hPa 0,0 l/m 0,00 h 0,00 h 261 W/m 6,8 km/h (2 Bft) 94,05 %
03.06.2019 12:00 21,6 C 21,9 C 19,6 C 79 % 1013,7 hPa 0,0 l/m 0,00 h 0,00 h 235 W/m 7,6 km/h (2 Bft) 99,67 %
03.06.2019 13:00 22,1 C 24,3 C 21,8 C 77 % 1013,9 hPa 0,0 l/m 0,27 h 0,00 h 393 W/m 7,3 km/h (2 Bft) 98,08 %
03.06.2019 14:00 23,2 C 24,5 C 22,6 C 73 % 1013,8 hPa 0,0 l/m 0,20 h 0,00 h 378 W/m 9,3 km/h (2 Bft) 96,30 %
03.06.2019 15:00 22,9 C 22,8 C 21,3 C 74 % 1014,0 hPa 0,0 l/m 0,00 h 0,03 h 195 W/m 7,3 km/h (2 Bft) 98,03 %
03.06.2019 16:00 22,5 C 22,5 C 21,2 C 74 % 1014,0 hPa 0,0 l/m 0,00 h 0,00 h 177 W/m 7,3 km/h (2 Bft) 97,83 %
03.06.2019 17:00 22,3 C 22,2 C 21,2 C 73 % 1013,8 hPa 0,0 l/m 0,00 h 0,00 h 164 W/m 7,7 km/h (2 Bft) 97,57 %
03.06.2019 18:00 22,8 C 23,3 C 21,5 C 73 % 1013,6 hPa 0,0 l/m 0,57 h 0,00 h 292 W/m 8,3 km/h (2 Bft) 96,24 %
03.06.2019 19:00 22,0 C 20,6 C 19,6 C 75 % 1014,1 hPa 0,0 l/m 0,00 h 0,00 h 62 W/m 5,7 km/h (1 Bft) 99,57 %
03.06.2019 20:00 20,7 C 19,4 C 18,8 C 78 % 1014,4 hPa 0,0 l/m 0,00 h 0,00 h 46 W/m 3,7 km/h (1 Bft) 97,46 %
03.06.2019 21:00 19,7 C 17,7 C 17,0 C 81 % 1014,6 hPa 0,0 l/m 0,00 h 0,00 h 13 W/m 0,6 km/h (0 Bft) 96,30 %
03.06.2019 22:00 18,3 C 16,0 C 15,4 C 84 % 1014,8 hPa 0,0 l/m 0,00 h 0,00 h 0 W/m 0,0 km/h (0 Bft) 99,58 %
03.06.2019 23:00 17,3 C 15,4 C 14,8 C 86 % 1014,6 hPa 0,0 l/m 0,00 h 0,00 h 0 W/m 0,0 km/h (0 Bft) 97,44 %
04.06.2019 00:00 16,8 C 15,9 C 15,1 C 89 % 1014,5 hPa 0,0 l/m 0,00 h 0,00 h 0 W/m 0,0 km/h (0 Bft) 95,71 %
04.06.2019 01:00 16,8 C 16,1 C 15,5 C 91 % 1014,4 hPa 0,0 l/m 0,00 h 0,00 h 0 W/m 0,2 km/h (0 Bft) 99,64 %
04.06.2019 02:00 16,8 C 16,1 C 15,6 C 91 % 1014,2 hPa 0,0 l/m 0,00 h 0,00 h 0 W/m 0,2 km/h (0 Bft) 96,94 %
04.06.2019 03:00 16,7 C 15,8 C 15,4 C 90 % 1014,0 hPa 0,0 l/m 0,00 h 0,00 h 0 W/m 0,5 km/h (0 Bft) 97,29 %
04.06.2019 04:00 16,2 C 14,2 C 13,8 C 89 % 1013,6 hPa 0,0 l/m 0,00 h 0,00 h 0 W/m 0,1 km/h (0 Bft) 99,07 %
04.06.2019 05:00 15,5 C 14,3 C 13,8 C 91 % 1013,5 hPa 0,0 l/m 0,00 h 0,00 h 11 W/m 0,2 km/h (0 Bft) 97,20 %
04.06.2019 06:00 15,5 C 15,5 C 14,8 C 93 % 1013,4 hPa 0,0 l/m 0,00 h 0,00 h 50 W/m 0,6 km/h (0 Bft) 99,05 %
04.06.2019 07:00 16,0 C 16,9 C 15,8 C 93 % 1013,3 hPa 0,0 l/m 0,00 h 0,00 h 68 W/m 0,0 km/h (0 Bft) 97,22 %
04.06.2019 08:00 17,4 C 21,0 C 20,1 C 90 % 1013,2 hPa 0,0 l/m 0,00 h 0,00 h 133 W/m 6,3 km/h (2 Bft) 96,80 %
04.06.2019 09:00 20,2 C 24,8 C 26,6 C 81 % 1012,8 hPa 0,0 l/m 0,97 h 0,00 h 478 W/m 9,6 km/h (2 Bft) 99,29 %
04.06.2019 10:00 22,1 C 26,7 C 28,2 C 75 % 1012,4 hPa 0,0 l/m 0,93 h 0,00 h 601 W/m 10,9 km/h (2 Bft) 96,72 %
04.06.2019 11:00 23,4 C 28,0 C 29,6 C 70 % 1011,8 hPa 0,0 l/m 0,93 h 0,00 h 719 W/m 13,1 km/h (3 Bft) 98,01 %
04.06.2019 12:00 24,3 C 27,4 C 28,3 C 68 % 1010,9 hPa 0,0 l/m 0,77 h 0,00 h 574 W/m 11,4 km/h (2 Bft) 97,54 %
04.06.2019 13:00 24,4 C 25,6 C 25,0 C 67 % 1009,7 hPa 0,0 l/m 0,30 h 0,00 h 401 W/m 15,0 km/h (3 Bft) 96,43 %
04.06.2019 14:00 24,4 C 25,1 C 24,1 C 68 % 1008,5 hPa 0,0 l/m 0,00 h 0,00 h 301 W/m 10,1 km/h (2 Bft) 98,77 %
04.06.2019 15:00 26,0 C 28,3 C 26,3 C 63 % 1007,7 hPa 0,0 l/m 0,97 h 0,00 h 690 W/m 12,9 km/h (3 Bft) 96,28 %
04.06.2019 16:00 28,0 C 28,5 C 26,7 C 61 % 1006,6 hPa 0,0 l/m 0,97 h 0,00 h 616 W/m 11,2 km/h (2 Bft) 97,63 %
04.06.2019 17:00 27,9 C 26,9 C 25,5 C 63 % 1005,2 hPa 0,0 l/m 0,00 h 0,00 h 166 W/m 12,0 km/h (2 Bft) 99,00 %
04.06.2019 18:00 27,4 C 27,3 C 25,7 C 64 % 1003,7 hPa 0,0 l/m 0,43 h 0,00 h 240 W/m 14,4 km/h (3 Bft) 96,30 %
04.06.2019 19:00 28,4 C 27,6 C 25,8 C 61 % 1002,7 hPa 0,0 l/m 0,40 h 0,00 h 168 W/m 13,3 km/h (3 Bft) 97,80 %
04.06.2019 20:00 27,7 C 26,4 C 25,7 C 60 % 1002,5 hPa 0,0 l/m 0,00 h 0,00 h 39 W/m 16,8 km/h (3 Bft) 97,71 %
04.06.2019 21:00 26,7 C 25,3 C 24,5 C 62 % 1002,0 hPa 0,0 l/m 0,00 h 0,00 h 11 W/m 13,6 km/h (3 Bft) 97,93 %
04.06.2019 22:00 25,9 C 24,9 C 24,3 C 63 % 1003,1 hPa 0,0 l/m 0,00 h 0,00 h 0 W/m 20,1 km/h (4 Bft) 98,01 %
04.06.2019 23:00 23,4 C 21,2 C 20,9 C 63 % 1005,3 hPa 0,0 l/m 0,00 h 0,20 h 0 W/m 13,2 km/h (3 Bft) 96,64 %
05.06.2019 00:00 21,4 C 19,7 C 19,3 C 71 % 1005,7 hPa 0,0 l/m 0,00 h 0,00 h 0 W/m 4,5 km/h (1 Bft) 99,03 %
05.06.2019 01:00 20,6 C 19,3 C 18,8 C 75 % 1006,1 hPa 0,0 l/m 0,00 h 0,00 h 0 W/m 6,9 km/h (2 Bft) 97,93 %
05.06.2019 02:00 19,8 C 18,1 C 17,6 C 79 % 1006,8 hPa 0,0 l/m 0,00 h 0,00 h 0 W/m 4,7 km/h (1 Bft) 96,94 %
05.06.2019 03:00 19,0 C 17,6 C 17,4 C 84 % 1007,2 hPa 0,0 l/m 0,00 h 0,00 h 0 W/m 3,5 km/h (1 Bft) 97,22 %
05.06.2019 04:00 18,3 C 16,5 C 16,4 C 87 % 1007,1 hPa 0,0 l/m 0,00 h 0,00 h 0 W/m 0,2 km/h (0 Bft) 98,15 %
05.06.2019 05:00 17,8 C 16,0 C 16,0 C 90 % 1007,6 hPa 0,0 l/m 0,00 h 0,20 h 6 W/m 2,1 km/h (1 Bft) 98,24 %
05.06.2019 06:00 17,5 C 16,3 C 16,1 C 92 % 1008,2 hPa 0,0 l/m 0,00 h 0,00 h 23 W/m 4,1 km/h (1 Bft) 95,54 %
05.06.2019 07:00 17,5 C 17,7 C 16,9 C 93 % 1008,0 hPa 0,0 l/m 0,00 h 0,00 h 50 W/m 4,4 km/h (1 Bft) 98,15 %
05.06.2019 08:00 18,8 C 21,6 C 20,0 C 89 % 1008,3 hPa 0,0 l/m 0,17 h 0,00 h 174 W/m 6,9 km/h (2 Bft) 99,15 %
05.06.2019 09:00 21,2 C 25,1 C 24,5 C 79 % 1008,8 hPa 0,0 l/m 0,67 h 0,00 h 435 W/m 11,0 km/h (2 Bft) 95,80 %
05.06.2019 10:00 23,0 C 28,7 C 28,4 C 74 % 1008,8 hPa 0,0 l/m 0,80 h 0,00 h 595 W/m 9,1 km/h (2 Bft) 97,08 %
05.06.2019 11:00 25,1 C 32,7 C 32,4 C 66 % 1008,6 hPa 0,0 l/m 1,00 h 0,00 h 816 W/m 6,5 km/h (2 Bft) 99,79 %
05.06.2019 12:00 25,2 C 28,5 C 28,3 C 65 % 1008,4 hPa 0,0 l/m 0,43 h 0,00 h 493 W/m 6,4 km/h (2 Bft) 96,54 %
05.06.2019 13:00 25,9 C 31,2 C 30,9 C 64 % 1008,2 hPa 0,0 l/m 0,60 h 0,00 h 757 W/m 8,6 km/h (2 Bft) 96,44 %
05.06.2019 14:00 26,3 C 29,3 C 28,2 C 63 % 1007,9 hPa 0,0 l/m 0,67 h 0,00 h 598 W/m 5,3 km/h (1 Bft) 99,57 %
05.06.2019 15:00 27,6 C 29,9 C 26,2 C 60 % 1007,0 hPa 0,0 l/m 0,83 h 0,00 h 756 W/m 8,3 km/h (2 Bft) 97,72 %
05.06.2019 16:00 28,4 C 28,1 C 26,0 C 59 % 1006,4 hPa 0,0 l/m 0,93 h 0,00 h 653 W/m 10,4 km/h (2 Bft) 95,54 %
05.06.2019 17:00 28,7 C 28,2 C 26,3 C 60 % 1005,7 hPa 0,0 l/m 1,00 h 0,00 h 566 W/m 9,5 km/h (2 Bft) 98,60 %
05.06.2019 18:00 28,4 C 28,0 C 26,0 C 60 % 1004,9 hPa 0,0 l/m 0,90 h 0,00 h 428 W/m 8,8 km/h (2 Bft) 98,16 %
05.06.2019 19:00 27,1 C 25,9 C 24,1 C 63 % 1004,3 hPa 0,0 l/m 0,57 h 0,00 h 215 W/m 9,4 km/h (2 Bft) 97,42 %
05.06.2019 20:00 24,1 C 22,3 C 21,5 C 70 % 1003,6 hPa 0,0 l/m 0,00 h 0,00 h 30 W/m 9,4 km/h (2 Bft) 96,01 %
05.06.2019 21:00 22,5 C 20,9 C 20,4 C 76 % 1002,8 hPa 0,0 l/m 0,00 h 0,00 h 10 W/m 7,0 km/h (2 Bft) 99,17 %
05.06.2019 22:00 21,7 C 20,2 C 19,6 C 79 % 1002,0 hPa 0,0 l/m 0,00 h 0,00 h 0 W/m 8,0 km/h (2 Bft) 97,78 %
05.06.2019 23:00 21,0 C 19,4 C 19,1 C 81 % 1001,9 hPa 0,0 l/m 0,00 h 0,00 h 0 W/m 5,2 km/h (1 Bft) 96,64 %
06.06.2019 00:00 19,2 C 17,3 C 17,5 C 82 % 1004,0 hPa 0,0 l/m 0,00 h 0,47 h 0 W/m 23,6 km/h (4 Bft) 98,39 %
06.06.2019 01:00 16,9 C 14,4 C 14,4 C 90 % 1005,4 hPa 7,0 l/m 0,00 h 0,97 h 0 W/m 5,6 km/h (1 Bft) 97,36 %
06.06.2019 02:00 16,1 C 14,4 C 14,2 C 94 % 1005,7 hPa 2,8 l/m 0,00 h 1,00 h 0 W/m 1,7 km/h (1 Bft) 98,08 %
06.06.2019 03:00 15,7 C 14,4 C 14,1 C 96 % 1005,3 hPa 3,6 l/m 0,00 h 1,00 h 0 W/m 2,5 km/h (1 Bft) 96,94 %
06.06.2019 04:00 15,2 C 13,6 C 13,6 C 96 % 1004,9 hPa 0,0 l/m 0,00 h 0,32 h 0 W/m 13,1 km/h (3 Bft) 97,25 %
06.06.2019 05:00 12,3 C 11,1 C 11,1 C 96 % 1007,3 hPa 0,0 l/m 0,00 h 0,00 h 0 W/m 19,4 km/h (3 Bft) 99,27 %
06.06.2019 06:00 11,8 C 10,9 C 10,7 C 97 % 1008,5 hPa 0,0 l/m 0,00 h 0,00 h 19 W/m 15,1 km/h (3 Bft) 97,58 %
06.06.2019 07:00 11,7 C 10,9 C 11,0 C 96 % 1009,7 hPa 0,0 l/m 0,00 h 0,00 h 31 W/m 15,5 km/h (3 Bft) 95,01 %
06.06.2019 08:00 11,8 C 11,7 C 11,1 C 95 % 1010,9 hPa 0,0 l/m 0,00 h 0,00 h 62 W/m 12,2 km/h (2 Bft) 99,57 %
06.06.2019 09:00 12,8 C 14,7 C 13,8 C 91 % 1011,6 hPa 0,0 l/m 0,23 h 0,00 h 271 W/m 15,0 km/h (3 Bft) 97,44 %
06.06.2019 10:00 14,7 C 18,1 C 17,6 C 83 % 1012,5 hPa 0,0 l/m 0,47 h 0,00 h 455 W/m 16,7 km/h (3 Bft) 95,44 %
06.06.2019 11:00 16,8 C 22,4 C 22,4 C 74 % 1013,0 hPa 0,0 l/m 1,00 h 0,00 h 930 W/m 17,9 km/h (3 Bft) 99,65 %
06.06.2019 12:00 18,4 C 23,4 C 23,6 C 69 % 1013,5 hPa 0,0 l/m 1,00 h 0,00 h 839 W/m 13,9 km/h (3 Bft) 97,49 %
06.06.2019 13:00 18,8 C 20,4 C 20,1 C 65 % 1014,0 hPa 0,0 l/m 0,53 h 0,00 h 478 W/m 14,2 km/h (3 Bft) 98,51 %
06.06.2019 14:00 18,7 C 20,6 C 19,9 C 64 % 1014,4 hPa 0,0 l/m 0,73 h 0,00 h 524 W/m 12,9 km/h (3 Bft) 96,65 %
06.06.2019 15:00 19,6 C 21,6 C 19,7 C 62 % 1014,7 hPa 0,0 l/m 0,90 h 0,00 h 510 W/m 8,8 km/h (2 Bft) 97,15 %
06.06.2019 16:00 19,9 C 21,0 C 19,5 C 59 % 1014,6 hPa 0,0 l/m 0,63 h 0,00 h 448 W/m 10,9 km/h (2 Bft) 98,15 %
06.06.2019 17:00 19,9 C 20,2 C 19,1 C 60 % 1014,4 hPa 0,0 l/m 0,60 h 0,00 h 440 W/m 8,6 km/h (2 Bft) 98,72 %
06.06.2019 18:00 21,0 C 20,6 C 19,3 C 54 % 1014,2 hPa 0,0 l/m 0,97 h 0,00 h 447 W/m 8,2 km/h (2 Bft) 96,43 %
06.06.2019 19:00 20,5 C 19,1 C 18,0 C 54 % 1014,2 hPa 0,0 l/m 0,60 h 0,00 h 213 W/m 13,8 km/h (3 Bft) 97,36 %
06.06.2019 20:00 18,8 C 17,3 C 16,8 C 60 % 1014,5 hPa 0,0 l/m 0,00 h 0,00 h 38 W/m 12,9 km/h (3 Bft) 99,43 %
06.06.2019 21:00 17,6 C 16,1 C 15,5 C 65 % 1014,7 hPa 0,0 l/m 0,00 h 0,00 h 12 W/m 6,0 km/h (2 Bft) 95,81 %
06.06.2019 22:00 16,5 C 14,4 C 13,4 C 70 % 1015,0 hPa 0,0 l/m 0,00 h 0,00 h 0 W/m 2,9 km/h (1 Bft) 97,07 %
06.06.2019 23:00 15,0 C 12,7 C 11,7 C 77 % 1015,2 hPa 0,0 l/m 0,00 h 0,00 h 0 W/m 1,9 km/h (1 Bft) 98,38 %
07.06.2019 00:00 13,8 C 12,4 C 11,6 C 81 % 1015,3 hPa 0,0 l/m 0,00 h 0,00 h 0 W/m 2,8 km/h (1 Bft) 99,71 %
07.06.2019 01:00 13,0 C 11,3 C 10,9 C 84 % 1015,1 hPa 0,0 l/m 0,00 h 0,00 h 0 W/m 2,5 km/h (1 Bft) 95,52 %
07.06.2019 02:00 12,1 C 9,9 C 9,7 C 86 % 1014,7 hPa 0,0 l/m 0,00 h 0,00 h 0 W/m 1,4 km/h (1 Bft) 97,10 %
07.06.2019 03:00 11,5 C 10,6 C 10,3 C 90 % 1014,6 hPa 0,0 l/m 0,00 h 0,00 h 0 W/m 3,8 km/h (1 Bft) 98,43 %
07.06.2019 04:00 11,4 C 10,5 C 10,4 C 92 % 1014,3 hPa 0,0 l/m 0,00 h 0,00 h 0 W/m 6,2 km/h (2 Bft) 97,22 %
07.06.2019 05:00 11,0 C 9,4 C 9,2 C 91 % 1013,7 hPa 0,0 l/m 0,00 h 0,00 h 10 W/m 1,1 km/h (1 Bft) 98,16 %
07.06.2019 06:00 11,0 C 11,2 C 10,6 C 93 % 1013,3 hPa 0,0 l/m 0,00 h 0,00 h 33 W/m 12,3 km/h (3 Bft) 96,06 %
07.06.2019 07:00 12,2 C 12,7 C 11,8 C 91 % 1012,8 hPa 0,0 l/m 0,00 h 0,00 h 71 W/m 10,3 km/h (2 Bft) 97,88 %
07.06.2019 08:00 14,6 C 18,1 C 16,6 C 84 % 1012,2 hPa 0,0 l/m 0,03 h 0,00 h 162 W/m 16,9 km/h (3 Bft) 99,02 %
07.06.2019 09:00 16,7 C 20,0 C 21,9 C 74 % 1011,7 hPa 0,0 l/m 1,00 h 0,00 h 533 W/m 25,3 km/h (4 Bft) 94,33 %
07.06.2019 10:00 18,5 C 22,2 C 24,8 C 69 % 1010,7 hPa 0,0 l/m 1,00 h 0,00 h 707 W/m 27,4 km/h (4 Bft) 98,85 %
07.06.2019 11:00 19,8 C 23,7 C 26,6 C 66 % 1009,6 hPa 0,0 l/m 0,97 h 0,00 h 806 W/m 25,4 km/h (4 Bft) 99,15 %
07.06.2019 12:00 21,8 C 26,2 C 29,9 C 62 % 1008,9 hPa 0,0 l/m 1,00 h 0,00 h 929 W/m 26,0 km/h (4 Bft) 95,91 %
07.06.2019 13:00 23,1 C 26,6 C 29,9 C 59 % 1007,8 hPa 0,0 l/m 1,00 h 0,00 h 935 W/m 29,9 km/h (5 Bft) 98,15 %
07.06.2019 14:00 24,6 C 27,9 C 30,5 C 55 % 1006,8 hPa 0,0 l/m 1,00 h 0,00 h 957 W/m 26,1 km/h (4 Bft) 97,44 %
07.06.2019 15:00 24,9 C 24,8 C 24,2 C 53 % 1006,3 hPa 0,0 l/m 0,13 h 0,00 h 276 W/m 30,6 km/h (5 Bft) 97,29 %
07.06.2019 16:00 24,4 C 24,4 C 23,6 C 56 % 1006,2 hPa 0,0 l/m 0,17 h 0,00 h 270 W/m 25,7 km/h (4 Bft) 98,01 %
07.06.2019 17:00 22,1 C 18,1 C 17,8 C 66 % 1007,6 hPa 0,6 l/m 0,00 h 0,80 h 66 W/m 26,2 km/h (4 Bft) 96,37 %
07.06.2019 18:00 17,1 C 14,7 C 14,1 C 75 % 1009,7 hPa 0,0 l/m 0,00 h 0,47 h 79 W/m 25,3 km/h (4 Bft) 98,94 %
07.06.2019 19:00 16,6 C 15,0 C 14,6 C 70 % 1009,3 hPa 0,2 l/m 0,00 h 0,37 h 61 W/m 23,7 km/h (4 Bft) 95,86 %
07.06.2019 20:00 15,1 C 12,6 C 12,4 C 81 % 1009,2 hPa 0,0 l/m 0,00 h 0,00 h 17 W/m 11,0 km/h (2 Bft) 97,22 %
07.06.2019 21:00 14,8 C 12,8 C 13,1 C 79 % 1009,1 hPa 0,0 l/m 0,00 h 0,00 h 11 W/m 10,9 km/h (2 Bft) 99,29 %
07.06.2019 22:00 14,8 C 13,8 C 13,6 C 75 % 1009,6 hPa 0,0 l/m 0,00 h 0,00 h 0 W/m 14,5 km/h (3 Bft) 95,65 %
07.06.2019 23:00 14,6 C 13,8 C 13,3 C 75 % 1009,8 hPa 0,0 l/m 0,00 h 0,00 h 0 W/m 14,8 km/h (3 Bft) 96,51 %
08.06.2019 13:00 16,4 C 16,2 C 15,6 C 64 % 1018,6 hPa 0,0 l/m 0,00 h 0,00 h 149 W/m 37,4 km/h (5 Bft) 99,10 %
08.06.2019 14:00 17,4 C 18,3 C 17,5 C 62 % 1019,0 hPa 0,0 l/m 0,20 h 0,00 h 378 W/m 34,7 km/h (5 Bft) 98,93 %
08.06.2019 15:00 18,8 C 19,8 C 18,7 C 58 % 1019,2 hPa 0,0 l/m 0,57 h 0,00 h 560 W/m 28,4 km/h (4 Bft) 97,78 %
08.06.2019 16:00 18,7 C 17,6 C 17,2 C 60 % 1019,4 hPa 0,0 l/m 0,43 h 0,13 h 474 W/m 27,7 km/h (4 Bft) 96,44 %
08.06.2019 17:00 16,2 C 15,4 C 15,1 C 72 % 1020,2 hPa 0,0 l/m 0,07 h 0,13 h 124 W/m 14,4 km/h (3 Bft) 97,30 %
08.06.2019 18:00 14,6 C 12,5 C 12,4 C 83 % 1020,8 hPa 0,6 l/m 0,13 h 0,57 h 111 W/m 13,3 km/h (3 Bft) 99,23 %
08.06.2019 19:00 14,4 C 12,9 C 12,3 C 85 % 1021,1 hPa 0,0 l/m 0,20 h 0,33 h 115 W/m 16,0 km/h (3 Bft) 96,30 %
08.06.2019 20:00 15,5 C 15,3 C 14,3 C 77 % 1021,4 hPa 0,0 l/m 0,00 h 0,00 h 46 W/m 14,7 km/h (3 Bft) 97,08 %
08.06.2019 21:00 15,7 C 14,6 C 14,1 C 75 % 1021,9 hPa 0,0 l/m 0,13 h 0,00 h 20 W/m 14,9 km/h (3 Bft) 99,56 %
08.06.2019 22:00 14,3 C 12,9 C 12,6 C 80 % 1022,5 hPa 0,0 l/m 0,00 h 0,00 h 0 W/m 12,2 km/h (2 Bft) 96,38 %
08.06.2019 23:00 13,2 C 12,0 C 11,8 C 83 % 1022,9 hPa 0,0 l/m 0,00 h 0,00 h 0 W/m 9,8 km/h (2 Bft) 96,15 %
09.06.2019 00:00 12,5 C 11,4 C 11,1 C 85 % 1023,0 hPa 0,0 l/m 0,00 h 0,00 h 0 W/m 7,6 km/h (2 Bft) 98,34 %
09.06.2019 01:00 12,0 C 10,9 C 10,6 C 87 % 1023,2 hPa 0,0 l/m 0,00 h 0,00 h 0 W/m 6,7 km/h (2 Bft) 98,86 %
09.06.2019 02:00 11,5 C 10,6 C 10,5 C 89 % 1023,5 hPa 0,0 l/m 0,00 h 0,00 h 0 W/m 7,9 km/h (2 Bft) 96,30 %
09.06.2019 03:00 11,1 C 10,3 C 9,8 C 89 % 1023,7 hPa 0,0 l/m 0,00 h 0,00 h 0 W/m 5,6 km/h (1 Bft) 96,41 %
09.06.2019 04:00 10,6 C 9,3 C 9,1 C 90 % 1023,9 hPa 0,0 l/m 0,00 h 0,00 h 0 W/m 3,0 km/h (1 Bft) 99,04 %
09.06.2019 05:00 10,1 C 9,3 C 9,1 C 91 % 1024,0 hPa 0,0 l/m 0,00 h 0,00 h 12 W/m 3,7 km/h (1 Bft) 96,02 %
09.06.2019 06:00 10,1 C 9,8 C 9,3 C 93 % 1024,2 hPa 0,0 l/m 0,00 h 0,00 h 38 W/m 6,4 km/h (2 Bft) 97,52 %
09.06.2019 07:00 10,8 C 11,9 C 11,0 C 93 % 1024,3 hPa 0,0 l/m 0,00 h 0,00 h 101 W/m 8,6 km/h (2 Bft) 97,44 %
09.06.2019 08:00 13,2 C 17,3 C 16,5 C 88 % 1024,4 hPa 0,0 l/m 0,00 h 0,00 h 104 W/m 11,7 km/h (2 Bft) 97,22 %
09.06.2019 09:00 17,0 C 23,4 C 24,4 C 71 % 1024,6 hPa 0,0 l/m 0,97 h 0,00 h 547 W/m 9,9 km/h (2 Bft) 95,87 %
09.06.2019 10:00 19,0 C 25,2 C 26,8 C 63 % 1024,4 hPa 0,0 l/m 1,00 h 0,00 h 733 W/m 11,0 km/h (2 Bft) 96,52 %
09.06.2019 11:00 20,4 C 27,0 C 28,5 C 56 % 1024,0 hPa 0,0 l/m 1,00 h 0,00 h 861 W/m 11,8 km/h (2 Bft) 99,43 %
09.06.2019 12:00 21,6 C 27,6 C 30,8 C 54 % 1023,3 hPa 0,0 l/m 1,00 h 0,00 h 940 W/m 12,1 km/h (2 Bft) 96,58 %
09.06.2019 13:00 22,9 C 28,1 C 30,6 C 51 % 1022,5 hPa 0,0 l/m 1,00 h 0,00 h 835 W/m 8,5 km/h (2 Bft) 98,43 %
09.06.2019 14:00 22,8 C 25,3 C 24,8 C 49 % 1021,8 hPa 0,0 l/m 0,93 h 0,00 h 623 W/m 10,1 km/h (2 Bft) 97,29 %
09.06.2019 15:00 22,7 C 24,1 C 22,7 C 49 % 1021,2 hPa 0,0 l/m 0,37 h 0,00 h 413 W/m 7,7 km/h (2 Bft) 96,58 %
09.06.2019 16:00 22,1 C 22,5 C 21,2 C 53 % 1020,7 hPa 0,0 l/m 0,00 h 0,00 h 209 W/m 3,3 km/h (1 Bft) 98,62 %
09.06.2019 17:00 21,4 C 20,9 C 19,4 C 56 % 1019,9 hPa 0,0 l/m 0,00 h 0,00 h 114 W/m 4,5 km/h (1 Bft) 96,68 %
09.06.2019 18:00 20,7 C 20,8 C 18,8 C 59 % 1019,2 hPa 0,0 l/m 0,03 h 0,00 h 176 W/m 6,2 km/h (2 Bft) 97,69 %
09.06.2019 19:00 20,7 C 20,0 C 18,9 C 59 % 1018,9 hPa 0,0 l/m 0,00 h 0,00 h 81 W/m 7,4 km/h (2 Bft) 97,79 %
09.06.2019 20:00 19,8 C 18,7 C 17,7 C 60 % 1018,5 hPa 0,0 l/m 0,00 h 0,00 h 35 W/m 6,8 km/h (2 Bft) 96,58 %
09.06.2019 21:00 19,0 C 17,7 C 16,9 C 62 % 1018,1 hPa 0,0 l/m 0,00 h 0,00 h 10 W/m 6,5 km/h (2 Bft) 98,51 %
09.06.2019 22:00 18,3 C 17,0 C 16,3 C 63 % 1017,8 hPa 0,0 l/m 0,00 h 0,00 h 0 W/m 4,8 km/h (1 Bft) 97,22 %
09.06.2019 23:00 17,7 C 16,4 C 15,7 C 66 % 1017,5 hPa 0,0 l/m 0,00 h 0,00 h 0 W/m 5,0 km/h (1 Bft) 96,23 %
Min-Datum _ 09.06.19 07.06.19 07.06.19 09.06.19 05.06.19 - - - - 03.06.19 04.06.19
_ Min-Zeit 05:32 05:22 05:22 14:14 22:56 - - - - 00:08 00:08
Minimum _ 10,0 C 8,9 C 8,9 C 46 % 1001,5 hPa - - - - 0,0 km/h (0 Bft) 87,50 %
Max-Datum _ 04.06.19 05.06.19 05.06.19 03.06.19 09.06.19 03.06.19 05.06.19 03.06.19 08.06.19 08.06.19 03.06.19
_ Max-Zeit 16:56 13:28 12:02 09:26 09:28 03:30 11:20 05:35 15:22 13:00 00:07
Maximum _ 28,8 C 35,0 C 35,0 C 99 % 1024,8 hPa 9,6 l/m 0,07 h 0,08 h 1124 W/m 64,4 km/h
S-SO (8 Bft)
100,00 %
Durchschnitt _ 19,0 C 19,3 C 18,8 C 75 % 1012,8 hPa #30,2 l/m #39:38 h #9:29 h 315 W/m 10,0 km/h (2 Bft) 97,57 %
© 2019 W. Hausmann